createdAt,value
2023-05-05T00:00:38.395Z,20.01
2023-05-05T00:01:38.403Z,19.85
2023-05-05T00:02:38.546Z,17.55
2023-05-05T00:03:38.441Z,16.18
2023-05-05T00:04:38.357Z,15.14
2023-05-05T00:05:38.329Z,14.23
2023-05-05T00:06:38.308Z,13.61
2023-05-05T00:07:38.305Z,13.30
2023-05-05T00:08:38.286Z,13.15
2023-05-05T00:09:38.270Z,13.61
2023-05-05T00:10:38.287Z,11.90
2023-05-05T00:11:38.259Z,10.89
2023-05-05T00:12:38.289Z,10.55
2023-05-05T00:13:38.245Z,11.06
2023-05-05T00:14:38.228Z,11.31
2023-05-05T00:15:38.261Z,11.85
2023-05-05T00:16:38.264Z,12.31
2023-05-05T00:17:38.255Z,12.96
2023-05-05T00:18:38.183Z,12.67
2023-05-05T00:19:38.204Z,12.59
2023-05-05T00:20:38.188Z,12.86
2023-05-05T00:21:38.152Z,13.16
2023-05-05T00:22:38.195Z,13.48
2023-05-05T00:23:38.189Z,14.03
2023-05-05T00:24:38.174Z,14.35
2023-05-05T00:25:38.185Z,14.93
2023-05-05T00:26:38.211Z,15.79
2023-05-05T00:27:40.230Z,15.28
2023-05-05T00:28:38.144Z,15.44
2023-05-05T00:29:38.117Z,15.59
2023-05-05T00:30:38.114Z,15.86
2023-05-05T00:31:38.122Z,15.73
2023-05-05T00:32:38.052Z,15.82
2023-05-05T00:33:37.970Z,16.05
2023-05-05T00:34:37.941Z,16.49
2023-05-05T00:35:37.922Z,16.22
2023-05-05T00:36:37.864Z,16.57
2023-05-05T00:37:37.820Z,16.72
2023-05-05T00:38:37.779Z,16.65
2023-05-05T00:39:37.716Z,16.89
2023-05-05T00:40:37.716Z,15.80
2023-05-05T00:41:37.688Z,15.05
2023-05-05T00:42:37.661Z,14.46
2023-05-05T00:43:38.557Z,13.77
2023-05-05T00:44:37.554Z,14.11
2023-05-05T00:45:37.549Z,14.16
2023-05-05T00:46:37.577Z,14.18
2023-05-05T00:47:37.504Z,14.51
2023-05-05T00:48:37.435Z,14.98
2023-05-05T00:49:37.409Z,14.95
2023-05-05T00:50:37.375Z,15.29
2023-05-05T00:51:37.329Z,15.67
2023-05-05T00:52:37.291Z,15.63
2023-05-05T00:53:37.236Z,14.74
2023-05-05T00:54:37.225Z,14.89
2023-05-05T00:55:37.172Z,15.15
2023-05-05T00:56:37.126Z,15.21
2023-05-05T00:57:37.079Z,15.66
2023-05-05T00:58:37.050Z,15.23
2023-05-05T00:59:37.030Z,16.04
2023-05-05T01:00:36.973Z,16.72
2023-05-05T01:01:36.929Z,17.44
2023-05-05T01:02:36.959Z,17.05
2023-05-05T01:03:36.918Z,17.34
2023-05-05T01:04:36.810Z,17.34
2023-05-05T01:05:36.792Z,17.68
2023-05-05T01:06:36.758Z,17.89
2023-05-05T01:07:36.684Z,18.12
2023-05-05T01:08:36.649Z,18.76
2023-05-05T01:09:36.592Z,19.04
2023-05-05T01:10:36.569Z,18.95
2023-05-05T01:11:36.564Z,18.14
2023-05-05T01:12:36.509Z,15.96
2023-05-05T01:13:36.465Z,15.17
2023-05-05T01:14:36.407Z,14.43
2023-05-05T01:15:36.388Z,13.69
2023-05-05T01:16:36.438Z,13.19
2023-05-05T01:17:36.332Z,12.69
2023-05-05T01:18:36.291Z,12.53
2023-05-05T01:19:36.238Z,12.31
2023-05-05T01:20:36.247Z,12.57
2023-05-05T01:21:36.219Z,13.29
2023-05-05T01:22:36.163Z,12.98
2023-05-05T01:23:36.138Z,12.72
2023-05-05T01:24:36.102Z,12.41
2023-05-05T01:25:36.051Z,12.68
2023-05-05T01:26:35.983Z,13.27
2023-05-05T01:27:35.972Z,13.36
2023-05-05T01:28:35.909Z,14.05
2023-05-05T01:29:35.872Z,14.22
2023-05-05T01:30:35.859Z,14.52
2023-05-05T01:31:35.881Z,14.71
2023-05-05T01:32:35.855Z,15.23
2023-05-05T01:33:35.734Z,15.58
2023-05-05T01:34:35.711Z,15.56
2023-05-05T01:35:35.668Z,15.79
2023-05-05T01:36:35.615Z,16.03
2023-05-05T01:37:35.585Z,16.40
2023-05-05T01:38:35.562Z,16.58
2023-05-05T01:39:35.538Z,16.78
2023-05-05T01:40:35.485Z,17.01
2023-05-05T01:41:35.453Z,17.01
2023-05-05T01:42:35.415Z,17.22
2023-05-05T01:43:35.383Z,17.47
2023-05-05T01:44:35.342Z,17.57
2023-05-05T01:45:35.318Z,17.31
2023-05-05T01:46:35.237Z,17.84
2023-05-05T01:47:35.227Z,18.24
2023-05-05T01:48:35.196Z,18.45
2023-05-05T01:49:35.151Z,18.62
2023-05-05T01:50:35.101Z,19.25
2023-05-05T01:51:35.092Z,19.65
2023-05-05T01:52:35.071Z,20.14
2023-05-05T01:53:35.046Z,20.20
2023-05-05T01:54:35.066Z,20.23
2023-05-05T01:55:35.017Z,20.04
2023-05-05T01:56:35.038Z,20.27
2023-05-05T01:57:35.012Z,19.89
2023-05-05T01:58:34.991Z,20.28
2023-05-05T01:59:35.025Z,20.32
2023-05-05T02:00:34.997Z,21.47
2023-05-05T02:01:35.034Z,20.98
2023-05-05T02:02:35.030Z,21.16
2023-05-05T02:03:35.018Z,21.31
2023-05-05T02:04:34.956Z,21.56
2023-05-05T02:05:34.965Z,21.49
2023-05-05T02:06:34.925Z,21.31
2023-05-05T02:07:34.924Z,21.74
2023-05-05T02:08:34.885Z,22.08
2023-05-05T02:09:34.894Z,21.93
2023-05-05T02:10:34.854Z,22.15
2023-05-05T02:11:34.858Z,21.74
2023-05-05T02:12:34.860Z,21.55
2023-05-05T02:13:34.931Z,21.27
2023-05-05T02:14:34.816Z,21.35
2023-05-05T02:15:34.852Z,21.79
2023-05-05T02:16:34.805Z,21.34
2023-05-05T02:17:34.831Z,21.70
2023-05-05T02:18:34.772Z,22.28
2023-05-05T02:19:34.818Z,22.72
2023-05-05T02:20:34.793Z,23.26
2023-05-05T02:21:34.840Z,23.50
2023-05-05T02:22:34.762Z,23.66
2023-05-05T02:23:34.786Z,23.73
2023-05-05T02:24:34.777Z,23.48
2023-05-05T02:25:34.757Z,23.93
2023-05-05T02:26:34.789Z,24.18
2023-05-05T02:27:34.789Z,23.86
2023-05-05T02:28:34.738Z,23.61
2023-05-05T02:29:35.612Z,23.75
2023-05-05T02:30:34.729Z,23.91
2023-05-05T02:31:34.757Z,23.60
2023-05-05T02:32:34.782Z,23.90
2023-05-05T02:33:34.696Z,24.10
2023-05-05T02:34:34.706Z,24.81
2023-05-05T02:35:34.691Z,24.86
2023-05-05T02:36:34.709Z,25.03
2023-05-05T02:37:34.747Z,25.31
2023-05-05T02:38:34.722Z,24.52
2023-05-05T02:39:34.712Z,24.44
2023-05-05T02:40:34.701Z,23.45
2023-05-05T02:41:34.762Z,23.73
2023-05-05T02:42:34.669Z,23.56
2023-05-05T02:43:34.687Z,22.85
2023-05-05T02:44:34.806Z,21.79
2023-05-05T02:45:34.669Z,21.06
2023-05-05T02:46:34.723Z,20.23
2023-05-05T02:47:34.679Z,19.41
2023-05-05T02:48:34.661Z,19.06
2023-05-05T02:49:34.620Z,18.63
2023-05-05T02:50:34.631Z,18.17
2023-05-05T02:51:34.615Z,18.24
2023-05-05T02:52:34.587Z,18.00
2023-05-05T02:53:34.601Z,17.78
2023-05-05T02:54:34.602Z,18.04
2023-05-05T02:55:34.615Z,18.40
2023-05-05T02:56:34.592Z,18.70
2023-05-05T02:57:34.576Z,18.66
2023-05-05T02:58:34.619Z,18.44
2023-05-05T02:59:34.596Z,19.33
2023-05-05T03:00:34.623Z,19.82
2023-05-05T03:01:34.634Z,19.32
2023-05-05T03:02:34.624Z,18.60
2023-05-05T03:03:34.660Z,18.66
2023-05-05T03:04:34.561Z,18.97
2023-05-05T03:05:34.555Z,18.57
2023-05-05T03:06:34.582Z,18.73
2023-05-05T03:07:34.532Z,18.36
2023-05-05T03:08:34.538Z,18.26
2023-05-05T03:09:34.547Z,18.47
2023-05-05T03:10:34.558Z,18.44
2023-05-05T03:11:34.557Z,18.95
2023-05-05T03:12:34.543Z,19.50
2023-05-05T03:13:34.545Z,20.76
2023-05-05T03:14:34.516Z,20.93
2023-05-05T03:15:34.522Z,21.79
2023-05-05T03:16:34.569Z,22.07
2023-05-05T03:17:34.557Z,22.74
2023-05-05T03:18:34.518Z,23.36
2023-05-05T03:19:34.513Z,24.13
2023-05-05T03:20:34.527Z,23.71
2023-05-05T03:21:34.526Z,23.49
2023-05-05T03:22:34.460Z,23.46
2023-05-05T03:23:34.448Z,23.63
2023-05-05T03:24:34.492Z,23.81
2023-05-05T03:25:34.441Z,23.00
2023-05-05T03:26:34.508Z,23.28
2023-05-05T03:27:34.507Z,23.06
2023-05-05T03:28:34.469Z,23.14
2023-05-05T03:29:34.492Z,24.36
2023-05-05T03:30:34.485Z,24.25
2023-05-05T03:31:34.563Z,24.28
2023-05-05T03:32:34.596Z,24.03
2023-05-05T03:33:34.508Z,24.09
2023-05-05T03:34:34.582Z,23.65
2023-05-05T03:35:34.534Z,23.26
2023-05-05T03:36:34.516Z,23.68
2023-05-05T03:37:34.514Z,24.22
2023-05-05T03:38:34.536Z,23.90
2023-05-05T03:39:34.533Z,24.30
2023-05-05T03:40:43.601Z,24.30
2023-05-05T03:41:35.472Z,24.35
2023-05-05T03:42:34.445Z,24.61
2023-05-05T03:43:34.395Z,25.07
2023-05-05T03:44:34.333Z,25.53
2023-05-05T03:45:34.323Z,25.98
2023-05-05T03:46:34.227Z,24.68
2023-05-05T03:47:34.251Z,24.20
2023-05-05T03:48:34.205Z,23.18
2023-05-05T03:49:34.119Z,23.04
2023-05-05T03:50:34.109Z,22.73
2023-05-05T03:51:34.066Z,22.38
2023-05-05T03:52:34.022Z,21.78
2023-05-05T03:53:33.952Z,21.51
2023-05-05T03:54:33.965Z,21.15
2023-05-05T03:55:33.898Z,20.31
2023-05-05T03:56:33.868Z,19.91
2023-05-05T03:57:33.855Z,20.06
2023-05-05T03:58:33.828Z,19.66
2023-05-05T03:59:33.791Z,19.51
2023-05-05T04:00:33.790Z,20.03
2023-05-05T04:01:33.773Z,20.27
2023-05-05T04:02:33.810Z,20.51
2023-05-05T04:03:33.851Z,21.19
2023-05-05T04:04:33.779Z,21.86
2023-05-05T04:05:33.701Z,21.73
2023-05-05T04:06:33.697Z,20.97
2023-05-05T04:07:33.711Z,20.57
2023-05-05T04:08:33.676Z,19.71
2023-05-05T04:09:33.693Z,19.79
2023-05-05T04:10:33.682Z,20.12
2023-05-05T04:11:33.667Z,20.47
2023-05-05T04:12:33.675Z,20.22
2023-05-05T04:13:33.614Z,20.05
2023-05-05T04:14:33.582Z,19.83
2023-05-05T04:15:33.558Z,19.14
2023-05-05T04:16:33.579Z,18.58
2023-05-05T04:17:33.565Z,18.60
2023-05-05T04:18:33.520Z,19.08
2023-05-05T04:19:33.506Z,19.55
2023-05-05T04:20:33.473Z,19.90
2023-05-05T04:21:33.483Z,20.15
2023-05-05T04:22:33.498Z,20.41
2023-05-05T04:23:33.502Z,20.50
2023-05-05T04:24:33.469Z,21.08
2023-05-05T04:25:33.457Z,21.28
2023-05-05T04:26:33.473Z,21.73
2023-05-05T04:27:33.417Z,22.10
2023-05-05T04:28:33.424Z,21.68
2023-05-05T04:29:33.401Z,21.49
2023-05-05T04:30:33.423Z,21.13
2023-05-05T04:31:33.447Z,20.91
2023-05-05T04:32:33.428Z,21.48
2023-05-05T04:33:33.399Z,22.14
2023-05-05T04:34:33.484Z,22.33
2023-05-05T04:35:33.430Z,22.43
2023-05-05T04:36:33.440Z,22.83
2023-05-05T04:37:33.435Z,22.24
2023-05-05T04:38:33.546Z,22.59
2023-05-05T04:39:33.490Z,22.55
2023-05-05T04:40:33.559Z,22.45
2023-05-05T04:41:33.450Z,22.63
2023-05-05T04:42:33.515Z,22.50
2023-05-05T04:43:33.508Z,22.84
2023-05-05T04:44:33.470Z,22.69
2023-05-05T04:45:33.459Z,22.89
2023-05-05T04:46:33.604Z,22.72
2023-05-05T04:47:33.549Z,23.12
2023-05-05T04:48:33.554Z,23.27
2023-05-05T04:49:33.601Z,23.31
2023-05-05T04:50:33.573Z,23.24
2023-05-05T04:51:33.582Z,23.40
2023-05-05T04:52:33.603Z,23.32
2023-05-05T04:53:33.586Z,23.93
2023-05-05T04:54:33.626Z,23.55
2023-05-05T04:55:33.673Z,24.18
2023-05-05T04:56:33.684Z,24.56
2023-05-05T04:57:33.683Z,24.48
2023-05-05T04:58:33.706Z,24.40
2023-05-05T04:59:33.691Z,24.04
2023-05-05T05:00:33.661Z,24.05
2023-05-05T05:01:40.732Z,24.32
2023-05-05T05:02:33.827Z,24.39
2023-05-05T05:03:33.877Z,24.60
2023-05-05T05:04:33.608Z,24.68
2023-05-05T05:05:33.585Z,24.62
2023-05-05T05:06:33.508Z,24.07
2023-05-05T05:07:33.488Z,23.90
2023-05-05T05:08:33.461Z,24.06
2023-05-05T05:09:33.395Z,23.96
2023-05-05T05:10:33.370Z,24.14
2023-05-05T05:11:33.342Z,23.47
2023-05-05T05:12:33.368Z,23.43
2023-05-05T05:13:33.238Z,23.16
2023-05-05T05:14:33.240Z,23.13
2023-05-05T05:15:33.167Z,23.08
2023-05-05T05:16:33.175Z,23.54
2023-05-05T05:17:33.158Z,23.14
2023-05-05T05:18:33.068Z,23.07
2023-05-05T05:19:33.035Z,23.18
2023-05-05T05:20:33.005Z,22.98
2023-05-05T05:21:33.076Z,23.20
2023-05-05T05:22:33.040Z,23.04
2023-05-05T05:23:32.996Z,23.08
2023-05-05T05:24:32.871Z,23.11
2023-05-05T05:25:32.839Z,23.15
2023-05-05T05:26:32.786Z,23.15
2023-05-05T05:27:32.704Z,23.46
2023-05-05T05:28:32.648Z,23.58
2023-05-05T05:29:32.643Z,23.47
2023-05-05T05:30:32.614Z,23.35
2023-05-05T05:31:32.578Z,23.72
2023-05-05T05:32:32.751Z,23.64
2023-05-05T05:33:32.448Z,23.66
2023-05-05T05:34:33.174Z,23.17
2023-05-05T05:35:32.373Z,23.81
2023-05-05T05:36:32.472Z,26.67
2023-05-05T05:37:32.437Z,33.00
2023-05-05T05:38:32.327Z,39.82
2023-05-05T05:39:32.249Z,43.08
2023-05-05T05:40:32.221Z,45.27
2023-05-05T05:41:32.117Z,46.98
2023-05-05T05:42:32.123Z,48.72
2023-05-05T05:43:32.078Z,49.19
2023-05-05T05:44:32.037Z,50.52
2023-05-05T05:45:38.995Z,50.70
2023-05-05T05:46:32.016Z,50.78
2023-05-05T05:47:32.259Z,50.54
2023-05-05T05:48:31.882Z,47.19
2023-05-05T05:49:31.855Z,45.78
2023-05-05T05:50:31.859Z,47.14
2023-05-05T05:51:31.756Z,48.46
2023-05-05T05:52:31.808Z,49.65
2023-05-05T05:53:31.697Z,50.57
2023-05-05T05:54:31.633Z,50.63
2023-05-05T05:55:31.622Z,52.11
2023-05-05T05:56:31.592Z,53.42
2023-05-05T05:57:31.518Z,56.04
2023-05-05T05:58:31.509Z,56.01
2023-05-05T05:59:31.439Z,58.25
2023-05-05T06:00:31.377Z,58.90
2023-05-05T06:01:31.368Z,58.26
2023-05-05T06:02:31.461Z,58.83
2023-05-05T06:03:31.352Z,59.44
2023-05-05T06:04:31.270Z,58.50
2023-05-05T06:05:31.180Z,58.14
2023-05-05T06:06:31.142Z,58.51
2023-05-05T06:07:31.088Z,60.68
2023-05-05T06:08:31.050Z,59.40
2023-05-05T06:09:31.008Z,59.44
2023-05-05T06:10:31.132Z,60.40
2023-05-05T06:11:30.899Z,58.42
2023-05-05T06:12:30.960Z,55.79
2023-05-05T06:13:30.818Z,54.38
2023-05-05T06:14:30.806Z,52.27
2023-05-05T06:15:30.763Z,51.67
2023-05-05T06:16:30.801Z,50.41
2023-05-05T06:17:30.700Z,49.04
2023-05-05T06:18:30.677Z,47.91
2023-05-05T06:19:30.672Z,48.01
2023-05-05T06:20:30.661Z,46.04
2023-05-05T06:21:30.649Z,44.42
2023-05-05T06:22:30.633Z,44.00
2023-05-05T06:23:30.646Z,42.66
2023-05-05T06:24:30.663Z,40.92
2023-05-05T06:25:30.658Z,40.53
2023-05-05T06:26:30.653Z,40.07
2023-05-05T06:27:30.664Z,39.74
2023-05-05T06:28:30.612Z,40.21
2023-05-05T06:29:30.634Z,39.91
2023-05-05T06:30:30.624Z,36.50
2023-05-05T06:31:30.700Z,36.14
2023-05-05T06:32:30.676Z,37.05
2023-05-05T06:33:30.624Z,37.48
2023-05-05T06:34:30.624Z,39.07
2023-05-05T06:35:30.659Z,39.28
2023-05-05T06:36:30.692Z,40.48
2023-05-05T06:37:30.677Z,40.21
2023-05-05T06:38:30.660Z,37.92
2023-05-05T06:39:30.686Z,34.85
2023-05-05T06:40:30.711Z,31.24
2023-05-05T06:41:30.734Z,30.04
2023-05-05T06:42:30.731Z,27.76
2023-05-05T06:43:30.722Z,26.24
2023-05-05T06:44:30.806Z,25.64
2023-05-05T06:45:30.770Z,24.83
2023-05-05T06:46:30.812Z,24.70
2023-05-05T06:47:31.271Z,23.39
2023-05-05T06:48:30.781Z,21.50
2023-05-05T06:49:30.864Z,19.99
2023-05-05T06:50:30.892Z,19.20
2023-05-05T06:51:30.762Z,18.51
2023-05-05T06:52:30.786Z,18.15
2023-05-05T06:53:30.848Z,17.90
2023-05-05T06:54:30.771Z,16.35
2023-05-05T06:55:30.786Z,14.63
2023-05-05T06:56:30.805Z,13.73
2023-05-05T06:57:31.289Z,13.04
2023-05-05T06:58:30.816Z,12.59
2023-05-05T06:59:31.728Z,12.50
2023-05-05T07:00:30.840Z,11.68
2023-05-05T07:01:30.777Z,11.66
2023-05-05T07:02:30.846Z,11.05
2023-05-05T07:03:31.696Z,10.59
2023-05-05T07:04:30.771Z,8.96
2023-05-05T07:05:31.775Z,8.31
2023-05-05T07:06:30.816Z,7.65
2023-05-05T07:07:30.718Z,6.93
2023-05-05T07:08:30.726Z,6.13
2023-05-05T07:09:30.709Z,5.88
2023-05-05T07:10:30.724Z,5.44
2023-05-05T07:11:30.771Z,4.98
2023-05-05T07:12:30.752Z,4.78
2023-05-05T07:13:30.733Z,4.49
2023-05-05T07:14:30.696Z,4.14
2023-05-05T07:15:30.632Z,3.68
2023-05-05T07:16:30.722Z,3.32
2023-05-05T07:17:30.583Z,3.22
2023-05-05T07:18:30.696Z,3.26
2023-05-05T07:19:30.634Z,3.14
2023-05-05T07:20:30.609Z,2.76
2023-05-05T07:21:30.552Z,2.59
2023-05-05T07:22:30.572Z,2.35
2023-05-05T07:23:30.576Z,2.15
2023-05-05T07:24:30.586Z,2.06
2023-05-05T07:25:30.606Z,1.98
2023-05-05T07:26:30.552Z,1.91
2023-05-05T07:27:30.515Z,1.88
2023-05-05T07:28:30.764Z,1.86
2023-05-05T07:29:30.514Z,1.69
2023-05-05T07:30:30.446Z,2.16
2023-05-05T07:31:30.439Z,3.32
2023-05-05T07:32:30.438Z,4.16
2023-05-05T07:33:30.471Z,4.69
2023-05-05T07:34:30.423Z,5.02
2023-05-05T07:35:30.427Z,6.20
2023-05-05T07:36:30.379Z,8.59
2023-05-05T07:37:30.439Z,10.18
2023-05-05T07:38:30.440Z,8.21
2023-05-05T07:39:30.464Z,8.85
2023-05-05T07:40:30.406Z,11.68
2023-05-05T07:41:30.475Z,11.48
2023-05-05T07:42:30.491Z,13.28
2023-05-05T07:43:30.790Z,14.11
2023-05-05T07:44:30.538Z,14.53
2023-05-05T07:45:30.648Z,17.26
2023-05-05T07:46:30.552Z,15.64
2023-05-05T07:47:30.645Z,13.75
2023-05-05T07:48:30.511Z,12.07
2023-05-05T07:49:30.528Z,10.55
2023-05-05T07:50:30.471Z,10.62
2023-05-05T07:51:31.154Z,11.91
2023-05-05T07:52:44.134Z,12.38
2023-05-05T07:53:31.359Z,12.09
2023-05-05T07:54:30.300Z,13.35
2023-05-05T07:55:30.256Z,13.96
2023-05-05T07:56:30.207Z,13.40
2023-05-05T07:57:30.175Z,12.33
2023-05-05T07:58:30.186Z,9.40
2023-05-05T07:59:30.120Z,8.16
2023-05-05T08:00:30.107Z,6.31
2023-05-05T08:01:30.133Z,6.02
2023-05-05T08:02:30.098Z,4.28
2023-05-05T08:03:30.162Z,3.09
2023-05-05T08:04:30.059Z,2.27
2023-05-05T08:05:30.076Z,1.74
2023-05-05T08:06:30.040Z,1.37
2023-05-05T08:07:30.083Z,1.15
2023-05-05T08:08:30.035Z,1.02
2023-05-05T08:09:30.077Z,0.88
2023-05-05T08:10:30.095Z,0.83
2023-05-05T08:11:30.169Z,0.81
2023-05-05T08:12:30.243Z,0.66
2023-05-05T08:13:30.169Z,0.70
2023-05-05T08:14:30.171Z,0.68
2023-05-05T08:15:30.267Z,0.72
2023-05-05T08:16:30.319Z,0.67
2023-05-05T08:17:30.341Z,0.65
2023-05-05T08:18:30.266Z,0.56
2023-05-05T08:19:30.324Z,0.50
2023-05-05T08:20:30.298Z,0.50
2023-05-05T08:21:30.327Z,0.50
2023-05-05T08:22:30.320Z,0.50
2023-05-05T08:23:30.358Z,0.48
2023-05-05T08:24:30.512Z,0.49
2023-05-05T08:25:30.390Z,0.50
2023-05-05T08:26:30.420Z,0.50
2023-05-05T08:27:30.420Z,0.51
2023-05-05T08:28:30.421Z,0.51
2023-05-05T08:29:30.431Z,0.50
2023-05-05T08:30:30.450Z,0.50
2023-05-05T08:31:30.503Z,0.50
2023-05-05T08:32:30.476Z,0.50
2023-05-05T08:33:30.837Z,0.50
2023-05-05T08:34:30.524Z,0.50
2023-05-05T08:35:30.538Z,0.51
2023-05-05T08:36:30.491Z,0.54
2023-05-05T08:37:30.552Z,0.57
2023-05-05T08:38:30.556Z,0.50
2023-05-05T08:39:30.583Z,0.50
2023-05-05T08:40:30.574Z,0.51
2023-05-05T08:41:30.586Z,0.51
2023-05-05T08:42:37.839Z,0.50
2023-05-05T08:43:31.575Z,0.50
2023-05-05T08:44:30.537Z,0.47
2023-05-05T08:45:30.507Z,0.43
2023-05-05T08:46:30.563Z,0.46
2023-05-05T08:47:30.635Z,0.48
2023-05-05T08:48:30.748Z,0.56
2023-05-05T08:49:30.453Z,0.57
2023-05-05T08:50:30.389Z,0.55
2023-05-05T08:51:30.340Z,0.59
2023-05-05T08:52:30.345Z,0.64
2023-05-05T08:53:30.318Z,1.13
2023-05-05T08:54:30.256Z,1.59
2023-05-05T08:55:30.220Z,2.90
2023-05-05T08:56:30.287Z,2.66
2023-05-05T08:57:30.271Z,3.13
2023-05-05T08:58:30.274Z,8.38
2023-05-05T08:59:30.211Z,11.61
2023-05-05T09:00:30.248Z,19.61
2023-05-05T09:01:30.262Z,21.09
2023-05-05T09:02:30.331Z,13.69
2023-05-05T09:03:30.350Z,11.62
2023-05-05T09:04:30.282Z,18.43
2023-05-05T09:05:30.353Z,21.80
2023-05-05T09:06:30.263Z,26.08
2023-05-05T09:07:30.290Z,34.13
2023-05-05T09:08:30.763Z,38.34
2023-05-05T09:09:30.305Z,20.01
2023-05-05T09:10:30.318Z,29.22
2023-05-05T09:11:30.322Z,31.48
2023-05-05T09:12:30.387Z,41.12
2023-05-05T09:13:30.385Z,45.12
2023-05-05T09:14:30.355Z,45.53
2023-05-05T09:15:30.486Z,46.18
2023-05-05T09:16:30.390Z,40.76
2023-05-05T09:17:30.409Z,23.33
2023-05-05T09:18:30.420Z,28.78
2023-05-05T09:19:30.427Z,22.98
2023-05-05T09:20:30.376Z,29.30
2023-05-05T09:21:30.442Z,32.66
2023-05-05T09:22:30.449Z,35.17
2023-05-05T09:23:30.420Z,37.07
2023-05-05T09:24:30.389Z,40.17
2023-05-05T09:25:30.410Z,42.14
2023-05-05T09:26:30.419Z,46.85
2023-05-05T09:27:30.415Z,48.07
2023-05-05T09:28:30.806Z,46.12
2023-05-05T09:29:30.351Z,43.50
2023-05-05T09:30:30.402Z,43.51
2023-05-05T09:31:30.393Z,48.15
2023-05-05T09:32:30.632Z,31.46
2023-05-05T09:33:30.376Z,34.14
2023-05-05T09:34:30.452Z,25.26
2023-05-05T09:35:30.363Z,25.69
2023-05-05T09:36:30.332Z,27.17
2023-05-05T09:37:30.371Z,29.56
2023-05-05T09:38:30.292Z,31.16
2023-05-05T09:39:30.254Z,28.23
2023-05-05T09:40:30.219Z,28.44
2023-05-05T09:41:30.225Z,34.35
2023-05-05T09:42:30.239Z,49.00
2023-05-05T09:43:30.309Z,49.94
2023-05-05T09:44:30.191Z,52.74
2023-05-05T09:45:30.144Z,44.77
2023-05-05T09:46:30.143Z,39.60
2023-05-05T09:47:30.487Z,44.12
2023-05-05T09:48:30.078Z,52.15
2023-05-05T09:49:30.034Z,59.43
2023-05-05T09:50:29.977Z,66.89
2023-05-05T09:51:29.968Z,77.38
2023-05-05T09:52:29.979Z,75.91
2023-05-05T09:53:30.426Z,73.88
2023-05-05T09:54:29.896Z,72.27
2023-05-05T09:55:29.902Z,64.45
2023-05-05T09:56:29.865Z,63.58
2023-05-05T09:57:29.823Z,70.63
2023-05-05T09:58:30.036Z,83.12
2023-05-05T09:59:29.790Z,97.94
2023-05-05T10:00:29.676Z,112.30
2023-05-05T10:01:29.730Z,131.51
2023-05-05T10:02:29.688Z,139.96
2023-05-05T10:03:29.611Z,137.45
2023-05-05T10:04:29.569Z,134.29
2023-05-05T10:05:29.543Z,136.84
2023-05-05T10:06:29.457Z,112.97
2023-05-05T10:07:29.453Z,107.44
2023-05-05T10:08:29.399Z,117.98
2023-05-05T10:09:29.435Z,128.52
2023-05-05T10:10:29.371Z,126.07
2023-05-05T10:11:29.322Z,130.21
2023-05-05T10:12:29.278Z,139.83
2023-05-05T10:13:29.312Z,140.11
2023-05-05T10:14:29.322Z,116.50
2023-05-05T10:15:29.381Z,111.04
2023-05-05T10:16:29.297Z,101.72
2023-05-05T10:17:29.224Z,100.35
2023-05-05T10:18:29.249Z,104.41
2023-05-05T10:19:29.200Z,107.51
2023-05-05T10:20:29.172Z,110.30
2023-05-05T10:21:29.195Z,111.45
2023-05-05T10:22:29.119Z,102.55
2023-05-05T10:23:29.081Z,102.56
2023-05-05T10:24:29.074Z,98.12
2023-05-05T10:25:29.061Z,93.56
2023-05-05T10:26:29.067Z,96.14
2023-05-05T10:27:29.092Z,95.26
2023-05-05T10:28:28.992Z,85.06
2023-05-05T10:29:29.353Z,79.98
2023-05-05T10:30:28.971Z,76.72
2023-05-05T10:31:28.947Z,70.30
2023-05-05T10:32:53.615Z,61.19
2023-05-05T10:33:32.127Z,58.15
2023-05-05T10:34:28.891Z,61.23
2023-05-05T10:35:28.774Z,61.51
2023-05-05T10:36:28.812Z,56.97
2023-05-05T10:37:28.719Z,53.67
2023-05-05T10:38:28.667Z,53.50
2023-05-05T10:39:28.626Z,51.93
2023-05-05T10:40:28.580Z,60.86
2023-05-05T10:41:28.549Z,53.18
2023-05-05T10:42:28.498Z,45.38
2023-05-05T10:43:28.416Z,41.97
2023-05-05T10:44:28.405Z,38.51
2023-05-05T10:45:28.451Z,35.17
2023-05-05T10:46:28.289Z,27.62
2023-05-05T10:47:28.236Z,28.40
2023-05-05T10:48:28.258Z,29.18
2023-05-05T10:49:28.185Z,32.57
2023-05-05T10:50:28.098Z,29.97
2023-05-05T10:51:39.449Z,28.73
2023-05-05T10:52:29.031Z,28.83
2023-05-05T10:53:27.946Z,28.97
2023-05-05T10:54:27.931Z,28.75
2023-05-05T10:55:27.881Z,28.23
2023-05-05T10:56:27.863Z,30.63
2023-05-05T10:57:27.825Z,34.28
2023-05-05T10:58:27.735Z,36.06
2023-05-05T10:59:27.644Z,31.51
2023-05-05T11:00:27.590Z,28.41
2023-05-05T11:01:27.655Z,27.22
2023-05-05T11:02:27.554Z,29.90
2023-05-05T11:03:27.648Z,27.70
2023-05-05T11:04:27.441Z,21.03
2023-05-05T11:05:27.323Z,21.21
2023-05-05T11:06:27.317Z,22.55
2023-05-05T11:07:27.227Z,24.38
2023-05-05T11:08:27.238Z,18.47
2023-05-05T11:09:27.228Z,17.45
2023-05-05T11:10:27.207Z,20.98
2023-05-05T11:11:27.217Z,19.58
2023-05-05T11:12:27.187Z,17.15
2023-05-05T11:13:27.245Z,15.64
2023-05-05T11:14:27.135Z,15.47
2023-05-05T11:15:27.170Z,17.55
2023-05-05T11:16:27.118Z,18.88
2023-05-05T11:17:27.100Z,17.89
2023-05-05T11:18:27.017Z,19.58
2023-05-05T11:19:27.073Z,20.27
2023-05-05T11:20:27.525Z,20.31
2023-05-05T11:21:26.978Z,20.71
2023-05-05T11:22:26.980Z,21.84
2023-05-05T11:23:26.999Z,17.10
2023-05-05T11:24:26.943Z,15.60
2023-05-05T11:25:26.926Z,12.46
2023-05-05T11:26:26.930Z,14.07
2023-05-05T11:27:26.915Z,11.62
2023-05-05T11:28:26.911Z,11.00
2023-05-05T11:29:26.921Z,10.10
2023-05-05T11:30:26.846Z,8.82
2023-05-05T11:31:26.861Z,7.35
2023-05-05T11:32:26.874Z,6.16
2023-05-05T11:33:26.747Z,7.50
2023-05-05T11:34:26.978Z,7.30
2023-05-05T11:35:26.685Z,7.37
2023-05-05T11:36:26.708Z,7.76
2023-05-05T11:37:26.661Z,9.42
2023-05-05T11:38:26.688Z,10.40
2023-05-05T11:39:26.902Z,8.40
2023-05-05T11:40:26.603Z,6.80
2023-05-05T11:41:26.532Z,6.37
2023-05-05T11:42:26.532Z,5.29
2023-05-05T11:43:26.502Z,5.21
2023-05-05T11:44:26.488Z,4.74
2023-05-05T11:45:26.519Z,4.85
2023-05-05T11:46:26.466Z,5.60
2023-05-05T11:47:26.482Z,5.38
2023-05-05T11:48:26.372Z,6.14
2023-05-05T11:49:26.339Z,6.59
2023-05-05T11:50:26.308Z,3.76
2023-05-05T11:51:26.315Z,3.32
2023-05-05T11:52:26.273Z,3.43
2023-05-05T11:53:26.283Z,3.69
2023-05-05T11:54:26.292Z,3.56
2023-05-05T11:55:26.218Z,3.73
2023-05-05T11:56:26.188Z,3.73
2023-05-05T11:57:26.181Z,3.17
2023-05-05T11:58:26.131Z,3.48
2023-05-05T11:59:26.117Z,3.79
2023-05-05T12:00:26.059Z,2.87
2023-05-05T12:01:26.120Z,2.52
2023-05-05T12:02:26.087Z,2.62
2023-05-05T12:03:26.148Z,2.61
2023-05-05T12:04:26.004Z,2.49
2023-05-05T12:05:25.964Z,2.32
2023-05-05T12:06:25.904Z,1.86
2023-05-05T12:07:25.843Z,1.78
2023-05-05T12:08:25.825Z,1.98
2023-05-05T12:09:25.780Z,2.05
2023-05-05T12:10:25.776Z,1.96
2023-05-05T12:11:25.722Z,1.99
2023-05-05T12:12:25.723Z,1.88
2023-05-05T12:13:25.784Z,1.72
2023-05-05T12:14:25.711Z,1.66
2023-05-05T12:15:25.606Z,1.92
2023-05-05T12:16:25.600Z,1.52
2023-05-05T12:17:25.645Z,1.45
2023-05-05T12:18:25.561Z,1.12
2023-05-05T12:19:25.527Z,1.08
2023-05-05T12:20:25.498Z,0.98
2023-05-05T12:21:25.463Z,1.06
2023-05-05T12:22:25.457Z,1.21
2023-05-05T12:23:25.416Z,0.87
2023-05-05T12:24:25.381Z,1.01
2023-05-05T12:25:25.374Z,1.03
2023-05-05T12:26:25.320Z,0.92
2023-05-05T12:27:25.308Z,1.08
2023-05-05T12:28:25.286Z,0.99
2023-05-05T12:29:25.273Z,0.95
2023-05-05T12:30:25.349Z,1.06
2023-05-05T12:31:25.219Z,0.97
2023-05-05T12:32:25.240Z,0.95
2023-05-05T12:33:25.148Z,0.91
2023-05-05T12:34:25.125Z,1.03
2023-05-05T12:35:25.140Z,1.02
2023-05-05T12:36:25.087Z,0.97
2023-05-05T12:37:25.026Z,0.90
2023-05-05T12:38:24.992Z,0.80
2023-05-05T12:39:24.975Z,0.78
2023-05-05T12:40:24.942Z,0.83
2023-05-05T12:41:24.882Z,0.71
2023-05-05T12:42:24.883Z,0.79
2023-05-05T12:43:24.825Z,0.73
2023-05-05T12:44:24.759Z,0.72
2023-05-05T12:45:24.781Z,0.68
2023-05-05T12:46:24.807Z,0.69
2023-05-05T12:47:24.686Z,0.82
2023-05-05T12:48:24.633Z,0.71
2023-05-05T12:49:24.612Z,0.69
2023-05-05T12:50:24.551Z,0.67
2023-05-05T12:51:24.531Z,0.64
2023-05-05T12:52:24.493Z,0.71
2023-05-05T12:53:24.461Z,0.71
2023-05-05T12:54:24.429Z,0.66
2023-05-05T12:55:24.393Z,0.58
2023-05-05T12:56:24.365Z,0.53
2023-05-05T12:57:24.370Z,0.48